createdAt,value
2022-10-26T00:01:19.220Z,11.45
2022-10-26T00:03:27.801Z,11.53
2022-10-26T00:05:37.026Z,11.43
2022-10-26T00:07:45.386Z,11.38
2022-10-26T00:09:55.967Z,11.32
2022-10-26T00:12:04.309Z,11.41
2022-10-26T00:14:12.411Z,11.39
2022-10-26T00:16:25.034Z,11.31
2022-10-26T00:18:33.168Z,11.29
2022-10-26T00:20:42.530Z,11.29
2022-10-26T00:22:51.537Z,11.32
2022-10-26T00:25:02.331Z,11.36
2022-10-26T00:27:10.909Z,11.45
2022-10-26T00:29:19.077Z,11.42
2022-10-26T00:31:28.324Z,11.30
2022-10-26T00:33:36.662Z,11.37
2022-10-26T00:35:46.362Z,11.46
2022-10-26T00:37:57.952Z,11.43
2022-10-26T00:40:10.562Z,11.50
2022-10-26T00:42:21.879Z,11.57
2022-10-26T00:45:01.877Z,11.43
2022-10-26T00:47:12.639Z,11.39
2022-10-26T00:49:23.508Z,11.28
2022-10-26T00:51:36.858Z,11.27
2022-10-26T00:53:45.750Z,11.29
2022-10-26T00:55:59.868Z,11.29
2022-10-26T00:58:10.869Z,11.30
2022-10-26T01:00:19.549Z,11.40
2022-10-26T01:02:28.001Z,11.44
2022-10-26T01:04:37.352Z,11.46
2022-10-26T01:06:47.218Z,11.45
2022-10-26T01:08:55.404Z,11.47
2022-10-26T01:11:07.398Z,11.47
2022-10-26T01:13:17.941Z,11.55
2022-10-26T01:15:33.520Z,11.59
2022-10-26T01:17:58.690Z,11.63
2022-10-26T01:20:28.371Z,11.58
2022-10-26T01:22:42.575Z,11.54
2022-10-26T01:25:14.193Z,11.49
2022-10-26T01:27:44.047Z,11.47
2022-10-26T01:30:13.916Z,11.54
2022-10-26T01:32:30.005Z,11.56
2022-10-26T01:34:41.924Z,11.56
2022-10-26T01:36:56.512Z,11.56
2022-10-26T01:39:11.133Z,11.50
2022-10-26T01:41:25.024Z,11.48
2022-10-26T01:43:38.308Z,11.46
2022-10-26T01:45:51.578Z,11.30
2022-10-26T01:48:05.435Z,11.28
2022-10-26T01:50:14.844Z,11.26
2022-10-26T01:52:23.552Z,11.28
2022-10-26T01:54:32.031Z,11.43
2022-10-26T01:56:43.309Z,11.51
2022-10-26T01:59:06.450Z,11.59
2022-10-26T02:01:28.118Z,11.54
2022-10-26T02:03:49.140Z,11.45
2022-10-26T02:06:10.300Z,11.57
2022-10-26T02:08:34.594Z,11.63
2022-10-26T02:10:51.867Z,11.53
2022-10-26T02:13:07.125Z,11.41
2022-10-26T02:15:20.809Z,11.32
2022-10-26T02:17:32.360Z,11.27
2022-10-26T02:19:48.043Z,11.31
2022-10-26T02:22:01.085Z,11.26
2022-10-26T02:24:14.143Z,11.32
2022-10-26T02:26:27.777Z,11.30
2022-10-26T02:28:39.842Z,11.34
2022-10-26T02:30:51.207Z,11.43
2022-10-26T02:33:02.074Z,11.40
2022-10-26T02:35:15.479Z,11.39
2022-10-26T02:37:26.542Z,11.40
2022-10-26T02:39:37.289Z,11.39
2022-10-26T02:41:49.187Z,11.42
2022-10-26T02:44:05.449Z,11.57
2022-10-26T02:46:19.179Z,11.47
2022-10-26T02:48:27.806Z,11.42
2022-10-26T02:50:46.181Z,11.39
2022-10-26T02:53:04.692Z,11.39
2022-10-26T02:55:20.609Z,11.38
2022-10-26T02:57:34.713Z,11.41
2022-10-26T02:59:47.707Z,11.45
2022-10-26T03:01:56.850Z,11.46
2022-10-26T03:04:06.856Z,11.52
2022-10-26T03:06:24.460Z,11.48
2022-10-26T03:08:32.960Z,11.49
2022-10-26T03:10:45.364Z,11.47
2022-10-26T03:12:54.155Z,11.60
2022-10-26T03:15:02.013Z,11.66
2022-10-26T03:17:10.231Z,11.66
2022-10-26T03:19:18.562Z,11.68
2022-10-26T03:21:29.611Z,11.70
2022-10-26T03:23:37.600Z,11.54
2022-10-26T03:25:45.975Z,11.53
2022-10-26T03:28:00.348Z,11.56
2022-10-26T03:30:10.046Z,11.58
2022-10-26T03:32:18.177Z,11.50
2022-10-26T03:34:26.544Z,11.53
2022-10-26T03:36:37.240Z,11.62
2022-10-26T03:38:45.453Z,11.67
2022-10-26T03:40:54.089Z,11.71
2022-10-26T03:43:02.355Z,11.77
2022-10-26T03:45:11.987Z,11.72
2022-10-26T03:47:20.783Z,11.58
2022-10-26T03:49:29.130Z,11.55
2022-10-26T03:51:42.784Z,11.53
2022-10-26T03:53:50.789Z,11.41
2022-10-26T03:56:01.328Z,11.41
2022-10-26T03:58:09.624Z,11.43
2022-10-26T04:00:20.575Z,11.45
2022-10-26T04:02:28.902Z,11.44
2022-10-26T04:04:37.524Z,11.39
2022-10-26T04:06:48.124Z,11.30
2022-10-26T04:09:01.962Z,11.10
2022-10-26T04:11:11.093Z,11.02
2022-10-26T04:13:18.971Z,10.94
2022-10-26T04:15:28.498Z,10.97
2022-10-26T04:17:36.773Z,10.74
2022-10-26T04:19:44.822Z,10.63
2022-10-26T04:21:57.167Z,10.55
2022-10-26T04:24:05.481Z,10.56
2022-10-26T04:26:13.747Z,10.47
2022-10-26T04:28:21.806Z,10.61
2022-10-26T04:30:30.306Z,10.60
2022-10-26T04:32:38.569Z,10.59
2022-10-26T04:34:48.498Z,10.59
2022-10-26T04:36:59.696Z,10.65
2022-10-26T04:39:08.406Z,10.68
2022-10-26T04:41:16.605Z,10.69
2022-10-26T04:43:24.768Z,10.73
2022-10-26T04:45:33.594Z,10.70
2022-10-26T04:47:43.064Z,10.66
2022-10-26T04:49:51.172Z,10.71
2022-10-26T04:52:02.332Z,10.70
2022-10-26T04:54:10.595Z,10.68
2022-10-26T04:56:19.068Z,10.70
2022-10-26T04:58:27.810Z,10.64
2022-10-26T05:00:36.749Z,10.60
2022-10-26T05:02:45.300Z,10.63
2022-10-26T05:04:53.403Z,10.61
2022-10-26T05:07:05.466Z,10.58
2022-10-26T05:09:13.751Z,10.61
2022-10-26T05:11:21.804Z,10.61
2022-10-26T05:13:30.104Z,10.53
2022-10-26T05:15:38.535Z,10.53
2022-10-26T05:17:47.112Z,10.60
2022-10-26T05:19:56.949Z,10.64
2022-10-26T05:22:07.825Z,10.58
2022-10-26T05:24:15.874Z,10.53
2022-10-26T05:26:24.886Z,10.50
2022-10-26T05:28:33.060Z,10.51
2022-10-26T05:30:42.343Z,10.54
2022-10-26T05:32:57.610Z,10.50
2022-10-26T05:35:08.520Z,10.61
2022-10-26T05:37:19.324Z,10.68
2022-10-26T05:39:27.633Z,10.66
2022-10-26T05:41:36.086Z,10.59
2022-10-26T05:43:46.964Z,10.61
2022-10-26T05:45:57.632Z,10.60
2022-10-26T05:48:05.838Z,10.63
2022-10-26T05:50:15.775Z,10.60
2022-10-26T05:52:26.395Z,10.67
2022-10-26T05:54:34.684Z,10.81
2022-10-26T05:56:44.820Z,10.81
2022-10-26T05:58:53.769Z,10.83
2022-10-26T06:01:15.345Z,10.79
2022-10-26T06:03:37.130Z,10.77
2022-10-26T06:05:56.645Z,10.91
2022-10-26T06:08:13.655Z,10.89
2022-10-26T06:10:23.077Z,10.96
2022-10-26T06:12:32.149Z,11.00
2022-10-26T06:14:43.380Z,11.02
2022-10-26T06:17:09.680Z,11.01
2022-10-26T06:19:30.970Z,11.03
2022-10-26T06:21:52.054Z,11.08
2022-10-26T06:24:11.125Z,11.09
2022-10-26T06:26:33.006Z,11.08
2022-10-26T06:28:50.877Z,11.17
2022-10-26T06:31:01.356Z,11.25
2022-10-26T06:33:24.809Z,11.23
2022-10-26T06:35:47.378Z,11.26
2022-10-26T06:37:57.606Z,11.34
2022-10-26T06:40:10.689Z,11.34
2022-10-26T06:42:21.071Z,11.38
2022-10-26T06:44:30.069Z,11.41
2022-10-26T06:46:43.189Z,11.50
2022-10-26T06:48:59.248Z,11.51
2022-10-26T06:51:08.319Z,11.49
2022-10-26T06:53:26.070Z,11.55
2022-10-26T06:55:43.612Z,11.56
2022-10-26T06:57:53.247Z,11.60
2022-10-26T07:00:05.347Z,11.67
2022-10-26T07:02:15.305Z,11.66
2022-10-26T07:04:24.107Z,11.76
2022-10-26T07:06:35.584Z,11.82
2022-10-26T07:08:46.843Z,11.91
2022-10-26T07:10:57.551Z,11.97
2022-10-26T07:13:05.727Z,12.00
2022-10-26T07:15:14.730Z,12.08
2022-10-26T07:17:22.827Z,12.11
2022-10-26T07:19:31.294Z,12.13
2022-10-26T07:21:39.690Z,12.16
2022-10-26T07:23:48.074Z,12.21
2022-10-26T07:25:59.313Z,12.30
2022-10-26T07:28:07.739Z,12.29
2022-10-26T07:30:16.487Z,12.34
2022-10-26T07:32:26.192Z,12.32
2022-10-26T07:34:36.351Z,12.35
2022-10-26T07:36:44.755Z,12.43
2022-10-26T07:38:55.352Z,12.49
2022-10-26T07:41:11.777Z,12.58
2022-10-26T07:43:20.043Z,12.72
2022-10-26T07:45:30.932Z,12.84
2022-10-26T07:47:39.605Z,12.89
2022-10-26T07:49:47.946Z,13.00
2022-10-26T07:51:56.270Z,13.06
2022-10-26T07:54:06.684Z,13.06
2022-10-26T07:56:17.594Z,13.15
2022-10-26T07:58:27.866Z,13.19
2022-10-26T08:00:36.099Z,13.18
2022-10-26T08:02:46.012Z,13.22
2022-10-26T08:04:54.499Z,13.30
2022-10-26T08:07:03.182Z,13.34
2022-10-26T08:09:11.536Z,13.42
2022-10-26T08:11:22.494Z,13.48
2022-10-26T08:13:30.717Z,13.70
2022-10-26T08:15:39.185Z,13.83
2022-10-26T08:17:47.453Z,13.86
2022-10-26T08:19:56.657Z,13.76
2022-10-26T08:22:06.720Z,13.68
2022-10-26T08:24:17.228Z,13.47
2022-10-26T08:26:28.563Z,13.46
2022-10-26T08:28:37.521Z,13.54
2022-10-26T08:30:45.964Z,13.35
2022-10-26T08:33:02.791Z,13.39
2022-10-26T08:35:12.736Z,13.07
2022-10-26T08:37:21.119Z,12.98
2022-10-26T08:39:31.110Z,13.17
2022-10-26T08:41:46.445Z,13.16
2022-10-26T08:44:00.387Z,13.14
2022-10-26T08:46:14.945Z,13.00
2022-10-26T08:48:27.070Z,13.21
2022-10-26T08:50:40.653Z,12.93
2022-10-26T08:52:58.534Z,12.85
2022-10-26T08:55:10.612Z,12.93
2022-10-26T08:57:26.656Z,13.07
2022-10-26T08:59:43.096Z,13.00
2022-10-26T09:01:53.753Z,13.12
2022-10-26T09:04:05.204Z,13.24
2022-10-26T09:06:27.164Z,13.49
2022-10-26T09:08:37.588Z,13.46
2022-10-26T09:10:59.261Z,13.66
2022-10-26T09:13:26.920Z,13.84
2022-10-26T09:15:50.440Z,14.13
2022-10-26T09:18:07.556Z,14.48
2022-10-26T09:20:37.137Z,14.84
2022-10-26T09:22:53.080Z,15.46
2022-10-26T09:25:07.838Z,16.38
2022-10-26T09:27:23.584Z,17.11
2022-10-26T09:29:42.078Z,18.11
2022-10-26T09:31:54.042Z,18.82
2022-10-26T09:34:08.522Z,19.90
2022-10-26T09:36:22.980Z,21.61
2022-10-26T09:38:34.123Z,22.53
2022-10-26T09:40:50.848Z,22.19
2022-10-26T09:43:04.228Z,23.42
2022-10-26T09:45:21.524Z,24.88
2022-10-26T09:47:38.009Z,25.34
2022-10-26T09:49:51.461Z,25.97
2022-10-26T09:52:05.881Z,25.29
2022-10-26T09:54:19.048Z,26.71
2022-10-26T09:56:29.275Z,26.39
2022-10-26T09:58:44.204Z,26.68
2022-10-26T10:00:56.107Z,27.11
2022-10-26T10:03:04.190Z,26.09
2022-10-26T10:08:15.194Z,22.70
2022-10-26T10:10:25.843Z,21.44
2022-10-26T10:12:33.911Z,20.91
2022-10-26T10:14:44.606Z,20.56
2022-10-26T10:16:57.749Z,19.74
2022-10-26T10:19:06.345Z,19.71
2022-10-26T10:21:15.086Z,19.67
2022-10-26T10:23:32.001Z,19.84
2022-10-26T10:25:42.227Z,19.63
2022-10-26T10:27:56.342Z,19.30
2022-10-26T10:30:25.140Z,19.61
2022-10-26T10:32:39.179Z,19.47
2022-10-26T10:34:50.037Z,19.38
2022-10-26T10:36:59.474Z,19.48
2022-10-26T10:39:38.658Z,20.04
2022-10-26T10:41:50.954Z,20.27
2022-10-26T10:44:06.729Z,20.54
2022-10-26T10:46:23.237Z,20.76
2022-10-26T10:48:37.243Z,20.91
2022-10-26T10:50:57.010Z,21.22
2022-10-26T10:53:19.955Z,21.39
2022-10-26T10:55:29.842Z,21.22
2022-10-26T10:57:46.563Z,21.02
2022-10-26T11:00:06.153Z,21.31
2022-10-26T11:02:46.655Z,21.32
2022-10-26T11:05:09.952Z,21.28
2022-10-26T11:07:20.815Z,21.49
2022-10-26T11:09:33.435Z,21.65
2022-10-26T11:11:46.100Z,21.73
2022-10-26T11:13:58.948Z,22.14
2022-10-26T11:16:11.873Z,21.95
2022-10-26T11:18:25.867Z,21.89
2022-10-26T11:20:40.002Z,21.90
2022-10-26T11:23:00.008Z,21.48
2022-10-26T11:25:14.881Z,21.35
2022-10-26T11:27:28.612Z,21.39
2022-10-26T11:29:47.592Z,21.22
2022-10-26T11:32:05.264Z,21.44
2022-10-26T11:34:26.413Z,21.12
2022-10-26T11:36:40.287Z,21.14
2022-10-26T11:38:57.352Z,21.20
2022-10-26T11:41:11.858Z,21.15
2022-10-26T11:43:27.562Z,20.92
2022-10-26T11:45:39.556Z,20.81
2022-10-26T11:47:54.976Z,20.66
2022-10-26T11:50:13.212Z,20.66
2022-10-26T11:52:34.141Z,20.48
2022-10-26T11:54:47.787Z,20.59
2022-10-26T11:56:58.471Z,20.66
2022-10-26T11:59:07.764Z,20.51
2022-10-26T12:01:18.527Z,20.68
2022-10-26T12:03:31.415Z,20.77
2022-10-26T12:05:50.857Z,20.96
2022-10-26T12:08:06.888Z,20.93
2022-10-26T12:10:25.872Z,21.08
2022-10-26T12:12:43.184Z,21.05
2022-10-26T12:14:59.262Z,21.11
2022-10-26T12:17:14.201Z,21.10
2022-10-26T12:21:57.760Z,20.91
2022-10-26T12:24:29.024Z,20.94
2022-10-26T12:26:53.727Z,20.85
2022-10-26T12:29:29.724Z,20.90
2022-10-26T12:31:47.169Z,20.94
2022-10-26T12:33:55.508Z,20.98
2022-10-26T12:36:03.793Z,20.85
2022-10-26T12:38:47.667Z,20.70
2022-10-26T12:41:17.099Z,20.65
2022-10-26T12:43:42.566Z,20.46
2022-10-26T12:46:25.857Z,20.43
2022-10-26T12:48:43.525Z,20.41
2022-10-26T12:50:52.384Z,20.58
2022-10-26T12:53:03.117Z,20.48
2022-10-26T12:55:40.237Z,20.44
2022-10-26T12:58:03.900Z,20.60
2022-10-26T13:00:18.633Z,20.68
2022-10-26T13:02:46.863Z,20.90
2022-10-26T13:05:20.272Z,20.91
2022-10-26T13:07:30.306Z,21.01
2022-10-26T13:09:39.967Z,21.10
2022-10-26T13:11:51.520Z,21.26
2022-10-26T13:14:06.118Z,21.30
2022-10-26T13:16:16.559Z,21.44
2022-10-26T13:18:26.004Z,21.39
2022-10-26T13:20:35.122Z,21.21
2022-10-26T13:22:50.937Z,21.14
2022-10-26T13:25:02.342Z,21.24
2022-10-26T13:27:28.849Z,21.23
2022-10-26T13:30:15.107Z,21.64
2022-10-26T13:32:23.916Z,21.93
2022-10-26T13:34:35.075Z,21.94
2022-10-26T13:36:48.839Z,22.12
2022-10-26T13:38:57.829Z,21.96
2022-10-26T13:41:16.100Z,21.87
2022-10-26T13:43:27.860Z,21.68
2022-10-26T13:45:49.371Z,21.52
2022-10-26T13:48:02.613Z,21.42
2022-10-26T13:50:15.847Z,21.31
2022-10-26T13:52:31.631Z,21.07
2022-10-26T13:54:47.324Z,21.05
2022-10-26T13:57:07.215Z,20.86
2022-10-26T14:01:48.186Z,20.79
2022-10-26T14:03:56.333Z,20.74
2022-10-26T14:06:08.401Z,20.61
2022-10-26T14:08:22.018Z,20.59
2022-10-26T14:10:33.460Z,20.54
2022-10-26T14:12:42.024Z,20.59
2022-10-26T14:14:50.872Z,20.41
2022-10-26T14:17:02.590Z,20.39
2022-10-26T14:19:16.274Z,20.44
2022-10-26T14:21:26.368Z,20.41
2022-10-26T14:23:38.568Z,20.24
2022-10-26T14:25:59.122Z,20.14
2022-10-26T14:28:26.642Z,20.13
2022-10-26T14:30:36.560Z,20.07
2022-10-26T14:32:47.722Z,20.00
2022-10-26T14:34:57.091Z,20.05
2022-10-26T14:37:08.189Z,20.17
2022-10-26T14:39:24.503Z,20.18
2022-10-26T14:41:35.072Z,20.23
2022-10-26T14:43:44.172Z,20.30
2022-10-26T14:45:54.654Z,20.32
2022-10-26T14:48:07.957Z,20.26
2022-10-26T14:50:23.392Z,20.28
2022-10-26T14:52:34.221Z,20.11
2022-10-26T14:54:44.101Z,20.04
2022-10-26T14:56:53.527Z,19.94
2022-10-26T14:59:02.048Z,19.73
2022-10-26T15:01:30.324Z,19.57
2022-10-26T15:03:44.092Z,19.46
2022-10-26T15:05:52.224Z,19.36
2022-10-26T15:08:00.677Z,19.36
2022-10-26T15:10:09.912Z,19.28
2022-10-26T15:12:30.557Z,19.22
2022-10-26T15:14:38.825Z,19.14
2022-10-26T15:16:56.574Z,19.06
2022-10-26T15:19:12.924Z,19.03
2022-10-26T15:21:27.574Z,18.99
2022-10-26T15:26:14.891Z,18.86
2022-10-26T15:28:28.833Z,18.80
2022-10-26T15:30:37.039Z,18.73
2022-10-26T15:32:45.377Z,18.70
2022-10-26T15:35:19.073Z,18.59
2022-10-26T15:37:27.471Z,18.55
2022-10-26T15:39:35.846Z,18.49
2022-10-26T15:41:52.623Z,18.41
2022-10-26T15:44:06.141Z,18.30
2022-10-26T15:46:14.876Z,18.37
2022-10-26T15:48:29.156Z,18.11
2022-10-26T15:50:41.388Z,17.93
2022-10-26T15:52:49.641Z,17.81
2022-10-26T15:54:58.081Z,17.62
2022-10-26T15:59:34.924Z,17.39
2022-10-26T16:01:43.455Z,17.27
2022-10-26T16:03:53.237Z,17.18
2022-10-26T16:06:05.575Z,17.05
2022-10-26T16:08:18.224Z,16.94
2022-10-26T16:10:28.880Z,16.80
2022-10-26T16:12:37.035Z,16.66
2022-10-26T16:15:04.108Z,16.48
2022-10-26T16:17:13.950Z,16.35
2022-10-26T16:19:31.127Z,16.27
2022-10-26T16:21:42.369Z,16.22
2022-10-26T16:23:52.154Z,16.14
2022-10-26T16:26:00.370Z,16.11
2022-10-26T16:28:08.689Z,16.16
2022-10-26T16:30:17.531Z,16.13
2022-10-26T16:32:25.590Z,16.14
2022-10-26T16:34:33.933Z,16.10
2022-10-26T16:36:45.066Z,16.16
2022-10-26T16:38:53.173Z,16.11
2022-10-26T16:41:05.794Z,16.05
2022-10-26T16:43:14.031Z,15.87
2022-10-26T16:45:22.404Z,15.77
2022-10-26T16:47:30.819Z,15.65
2022-10-26T16:49:43.428Z,15.63
2022-10-26T16:51:54.933Z,15.84
2022-10-26T16:54:03.126Z,15.79
2022-10-26T16:56:13.495Z,15.70
2022-10-26T16:58:21.615Z,15.66
2022-10-26T17:00:29.642Z,15.82
2022-10-26T17:02:44.129Z,16.05
2022-10-26T17:04:56.398Z,16.10
2022-10-26T17:07:07.423Z,15.90
2022-10-26T17:09:16.255Z,15.83
2022-10-26T17:11:25.307Z,15.86
2022-10-26T17:13:33.757Z,16.07
2022-10-26T17:15:43.800Z,15.95
2022-10-26T17:17:51.864Z,15.90
2022-10-26T17:20:03.133Z,15.82
2022-10-26T17:22:14.359Z,15.71
2022-10-26T17:24:22.772Z,15.65
2022-10-26T17:26:31.331Z,15.53
2022-10-26T17:28:40.522Z,15.37
2022-10-26T17:30:48.936Z,15.23
2022-10-26T17:32:57.060Z,15.13
2022-10-26T17:35:06.004Z,15.10
2022-10-26T17:37:17.757Z,14.96
2022-10-26T17:39:26.481Z,14.91
2022-10-26T17:41:34.593Z,14.94
2022-10-26T17:43:44.331Z,15.07
2022-10-26T17:45:52.494Z,15.03
2022-10-26T17:48:04.083Z,14.97
2022-10-26T17:50:12.684Z,14.98
2022-10-26T17:52:24.886Z,14.96
2022-10-26T17:54:33.561Z,14.91
2022-10-26T17:56:41.847Z,14.97
2022-10-26T17:58:54.429Z,14.91
2022-10-26T18:01:04.920Z,14.85
2022-10-26T18:03:13.123Z,14.80
2022-10-26T18:05:21.268Z,14.73
2022-10-26T18:07:33.663Z,14.93
2022-10-26T18:09:41.697Z,14.92
2022-10-26T18:11:52.206Z,14.96
2022-10-26T18:14:03.297Z,15.20
2022-10-26T18:16:13.514Z,15.12
2022-10-26T18:18:22.033Z,15.07
2022-10-26T18:20:30.513Z,14.90
2022-10-26T18:22:41.217Z,14.80
2022-10-26T18:24:49.887Z,14.65
2022-10-26T18:26:58.619Z,14.60
2022-10-26T18:29:08.076Z,14.61
2022-10-26T18:31:18.888Z,14.55
2022-10-26T18:33:27.269Z,14.68
2022-10-26T18:35:36.141Z,14.79
2022-10-26T18:37:47.182Z,14.70
2022-10-26T18:39:55.723Z,14.71
2022-10-26T18:42:04.119Z,14.82
2022-10-26T18:44:12.412Z,14.77
2022-10-26T18:46:23.864Z,14.53
2022-10-26T18:48:32.428Z,14.37
2022-10-26T18:50:40.905Z,14.28
2022-10-26T18:52:52.003Z,14.27
2022-10-26T18:55:00.396Z,14.22
2022-10-26T18:57:08.678Z,14.36
2022-10-26T18:59:16.815Z,14.67
2022-10-26T19:01:27.543Z,14.64
2022-10-26T19:03:35.782Z,14.56
2022-10-26T19:05:43.960Z,14.49
2022-10-26T19:07:55.501Z,14.47
2022-10-26T19:10:04.338Z,14.47
2022-10-26T19:12:13.092Z,14.47
2022-10-26T19:14:21.485Z,14.47
2022-10-26T19:16:45.215Z,14.37
2022-10-26T19:18:56.040Z,14.27
2022-10-26T19:21:07.169Z,14.13
2022-10-26T19:23:17.943Z,14.30
2022-10-26T19:25:26.249Z,14.31
2022-10-26T19:27:34.853Z,14.26
2022-10-26T19:29:44.640Z,14.29
2022-10-26T19:31:55.844Z,14.21
2022-10-26T19:34:05.007Z,14.09
2022-10-26T19:36:15.257Z,14.06
2022-10-26T19:38:27.110Z,13.92
2022-10-26T19:40:35.409Z,13.89
2022-10-26T19:42:43.791Z,13.76
2022-10-26T19:44:52.034Z,13.68
2022-10-26T19:47:00.608Z,13.56
2022-10-26T19:49:08.999Z,13.56
2022-10-26T19:51:17.335Z,13.54
2022-10-26T19:53:28.417Z,13.54
2022-10-26T19:55:36.509Z,13.49
2022-10-26T19:57:46.114Z,13.48
2022-10-26T19:59:54.294Z,13.37
2022-10-26T20:02:02.700Z,13.32
2022-10-26T20:04:10.913Z,13.40
2022-10-26T20:06:19.074Z,13.36
2022-10-26T20:08:30.512Z,13.30
2022-10-26T20:10:43.127Z,13.30
2022-10-26T20:12:52.467Z,13.30
2022-10-26T20:15:00.865Z,13.22
2022-10-26T20:17:10.930Z,13.12
2022-10-26T20:19:19.567Z,13.17
2022-10-26T20:21:28.183Z,13.34
2022-10-26T20:23:39.255Z,13.18
2022-10-26T20:25:49.790Z,13.12
2022-10-26T20:27:57.914Z,12.91
2022-10-26T20:30:08.365Z,12.80
2022-10-26T20:32:17.325Z,12.79
2022-10-26T20:34:25.917Z,12.80
2022-10-26T20:36:34.124Z,12.79
2022-10-26T20:38:46.623Z,13.03
2022-10-26T20:40:59.232Z,13.01
2022-10-26T20:43:08.154Z,12.97
2022-10-26T20:45:19.777Z,13.05
2022-10-26T20:47:28.933Z,13.08
2022-10-26T20:49:38.038Z,13.03
2022-10-26T20:52:19.632Z,13.11
2022-10-26T20:54:30.252Z,13.27
2022-10-26T20:56:42.963Z,13.31
2022-10-26T20:58:55.090Z,13.31
2022-10-26T21:01:05.710Z,13.30
2022-10-26T21:03:14.234Z,13.29
2022-10-26T21:05:22.667Z,13.15
2022-10-26T21:07:33.525Z,13.09
2022-10-26T21:09:44.778Z,13.04
2022-10-26T21:11:58.035Z,12.96
2022-10-26T21:14:06.729Z,12.90
2022-10-26T21:16:15.045Z,12.90
2022-10-26T21:18:23.612Z,12.93
2022-10-26T21:20:32.431Z,12.91
2022-10-26T21:22:40.877Z,12.91
2022-10-26T21:24:52.744Z,12.95
2022-10-26T21:27:01.042Z,13.08
2022-10-26T21:29:09.076Z,13.07
2022-10-26T21:31:21.450Z,12.99
2022-10-26T21:33:32.282Z,12.96
2022-10-26T21:35:40.747Z,12.96
2022-10-26T21:37:50.041Z,13.00
2022-10-26T21:40:01.050Z,12.96
2022-10-26T21:42:09.647Z,12.96
2022-10-26T21:44:40.326Z,12.99
2022-10-26T21:46:46.605Z,13.06
2022-10-26T21:48:56.632Z,13.00
2022-10-26T21:51:06.303Z,12.98
2022-10-26T21:53:14.412Z,13.00
2022-10-26T21:55:25.314Z,12.91
2022-10-26T21:57:33.503Z,12.78
2022-10-26T21:59:41.839Z,12.69
2022-10-26T22:01:50.877Z,12.75
2022-10-26T22:03:59.277Z,12.65
2022-10-26T22:06:09.041Z,12.61
2022-10-26T22:08:17.385Z,12.57
2022-10-26T22:10:28.772Z,12.54
2022-10-26T22:12:37.668Z,12.45
2022-10-26T22:17:14.173Z,12.21
2022-10-26T22:19:22.324Z,12.27
2022-10-26T22:21:30.917Z,12.28
2022-10-26T22:23:40.731Z,12.44
2022-10-26T22:25:51.650Z,12.50
2022-10-26T22:27:59.741Z,12.48
2022-10-26T22:30:09.941Z,12.55
2022-10-26T22:32:17.998Z,12.56
2022-10-26T22:34:26.119Z,12.49
2022-10-26T22:36:34.212Z,12.56
2022-10-26T22:38:43.360Z,12.40
2022-10-26T22:41:00.010Z,12.31
2022-10-26T22:43:08.151Z,12.31
2022-10-26T22:45:16.576Z,12.32
2022-10-26T22:47:24.860Z,12.33
2022-10-26T22:49:33.299Z,12.22
2022-10-26T22:51:41.547Z,12.14
2022-10-26T22:53:50.127Z,12.13
2022-10-26T22:56:01.035Z,12.10
2022-10-26T22:58:09.227Z,12.04
2022-10-26T23:00:34.268Z,12.11
2022-10-26T23:02:49.813Z,12.18
2022-10-26T23:04:58.462Z,12.11
2022-10-26T23:07:09.741Z,12.10
2022-10-26T23:09:17.915Z,12.03
2022-10-26T23:11:30.555Z,11.99
2022-10-26T23:13:39.226Z,12.10
2022-10-26T23:15:47.712Z,12.21
2022-10-26T23:17:56.811Z,12.21
2022-10-26T23:20:05.288Z,12.10
2022-10-26T23:22:13.953Z,12.02
2022-10-26T23:24:22.256Z,11.93
2022-10-26T23:26:34.555Z,11.96
2022-10-26T23:28:44.189Z,12.10
2022-10-26T23:30:53.009Z,12.14
2022-10-26T23:33:01.031Z,12.10
2022-10-26T23:35:10.273Z,12.00
2022-10-26T23:37:19.662Z,11.97
2022-10-26T23:39:27.985Z,11.87
2022-10-26T23:41:38.691Z,12.06
2022-10-26T23:43:46.854Z,12.02
2022-10-26T23:45:56.081Z,12.09
2022-10-26T23:48:04.435Z,11.96
2022-10-26T23:50:14.138Z,11.94
2022-10-26T23:52:22.164Z,11.77
2022-10-26T23:54:30.044Z,11.73
2022-10-26T23:56:41.024Z,11.70
2022-10-26T23:58:53.048Z,11.59
